createdAt,value
2018-11-01T12:25:59.719Z,96646.02
2018-11-01T12:30:54.699Z,96635.28
2018-11-01T12:35:49.526Z,96626.95
2018-11-01T12:40:44.334Z,96637.37
2018-11-01T12:45:42.287Z,96636.99
2018-11-01T12:50:37.088Z,96648.34
2018-11-01T12:55:33.000Z,96643.16
2018-11-01T13:00:29.986Z,96638.22
2018-11-01T13:05:24.905Z,96629.47
2018-11-01T13:10:19.859Z,96639.45
2018-11-01T13:15:14.761Z,96634.28
2018-11-01T13:20:10.247Z,96624.09
2018-11-01T13:25:05.181Z,96619.16
2018-11-01T13:29:59.950Z,96625.08
2018-11-01T13:34:55.199Z,96630.24
2018-11-01T13:39:50.093Z,96634.97
2018-11-01T13:44:44.934Z,96636.25
2018-11-01T13:49:39.859Z,96635.88
2018-11-01T13:54:34.777Z,96633.21
2018-11-01T13:59:29.540Z,96631.59
2018-11-01T14:04:24.329Z,96626.30
2018-11-01T14:09:19.184Z,96620.70
2018-11-01T14:14:14.401Z,96619.12
2018-11-01T14:19:09.226Z,96623.36
2018-11-01T14:24:04.273Z,96635.88
2018-11-01T14:28:59.140Z,96644.03
2018-11-01T14:33:54.106Z,96647.40
2018-11-01T14:38:49.070Z,96647.75
2018-11-01T14:43:43.980Z,96646.09
2018-11-01T14:48:38.974Z,96632.08
2018-11-01T14:53:34.343Z,96620.98
2018-11-01T14:58:30.140Z,96625.64
2018-11-01T15:03:24.230Z,96628.48
2018-11-01T15:08:19.132Z,96632.67
2018-11-01T15:13:14.091Z,96637.70
2018-11-01T15:18:08.951Z,96631.08
2018-11-01T15:23:03.879Z,96641.30
2018-11-01T15:27:58.794Z,96645.70
2018-11-01T15:32:53.681Z,96651.02
2018-11-01T15:37:48.570Z,96655.64
2018-11-01T15:42:44.153Z,96649.34
2018-11-01T15:47:39.792Z,96652.63
2018-11-01T15:52:34.713Z,96656.17
2018-11-01T15:57:29.768Z,96663.73
2018-11-01T16:02:24.806Z,96668.58
2018-11-01T16:07:19.889Z,96666.04
2018-11-01T16:12:14.828Z,96671.57
2018-11-01T16:17:10.434Z,96671.16
2018-11-01T16:22:05.375Z,96691.33
2018-11-01T16:27:00.396Z,96719.44
2018-11-01T16:31:55.415Z,96739.48
2018-11-01T16:36:50.409Z,96756.14
2018-11-01T16:41:45.230Z,96758.91
2018-11-01T16:46:40.276Z,96775.17
2018-11-01T16:51:35.270Z,96783.84
2018-11-01T16:56:30.226Z,96789.66
2018-11-01T17:01:25.235Z,96802.71
2018-11-01T17:06:20.325Z,96799.46
2018-11-01T17:11:15.884Z,96805.11
2018-11-01T17:16:10.808Z,96815.77
2018-11-01T17:21:05.840Z,96829.22
2018-11-01T17:26:01.711Z,96856.08
2018-11-01T17:30:56.622Z,96873.28
2018-11-01T17:35:51.496Z,96884.80
2018-11-01T17:40:53.163Z,96911.47
2018-11-01T17:45:48.135Z,96921.41
2018-11-01T17:50:43.029Z,96930.61
2018-11-01T17:55:37.940Z,96937.09
2018-11-01T18:00:33.939Z,96945.51
2018-11-01T18:05:28.956Z,96950.84
2018-11-01T18:10:23.892Z,96976.14
2018-11-01T18:15:19.033Z,96973.66
2018-11-01T18:20:14.655Z,96984.77
2018-11-01T18:25:11.616Z,97000.25
2018-11-01T18:30:08.683Z,97008.63
2018-11-01T18:35:03.590Z,97008.52
2018-11-01T18:39:58.474Z,97036.74
2018-11-01T18:44:53.372Z,97039.35
2018-11-01T18:49:48.370Z,97043.45
2018-11-01T18:54:43.667Z,97045.66
2018-11-01T18:59:38.452Z,97056.06
2018-11-01T19:04:33.344Z,97063.11
2018-11-01T19:09:28.723Z,97060.28
2018-11-01T19:14:24.137Z,97077.30
2018-11-01T19:19:19.137Z,97086.34
2018-11-01T19:24:14.157Z,97080.59
2018-11-01T19:29:09.326Z,97084.17
2018-11-01T19:34:04.581Z,97084.45
2018-11-01T19:38:59.563Z,97089.97
2018-11-01T19:43:54.520Z,97113.00
2018-11-01T19:48:49.486Z,97129.42
2018-11-01T19:53:44.415Z,97137.25
2018-11-01T19:58:39.398Z,97140.23
2018-11-01T20:03:34.522Z,97149.17
2018-11-01T20:08:29.888Z,97152.63
2018-11-01T20:13:25.083Z,97169.03
2018-11-01T20:18:19.996Z,97175.98
2018-11-01T20:23:15.422Z,97181.68
2018-11-01T20:28:10.404Z,97181.78
2018-11-01T20:33:05.475Z,97182.42
2018-11-01T20:38:00.721Z,97190.14
2018-11-01T20:42:55.555Z,97186.39
2018-11-01T20:47:50.865Z,97201.20
2018-11-01T20:52:45.803Z,97203.13
2018-11-01T20:57:40.812Z,97204.13
2018-11-01T21:02:36.127Z,97210.31
2018-11-01T21:07:31.040Z,97199.48
2018-11-01T21:12:26.176Z,97204.22
2018-11-01T21:17:21.477Z,97221.54
2018-11-01T21:22:16.373Z,97228.36
2018-11-01T21:27:11.577Z,97233.27
2018-11-01T21:32:07.730Z,97232.91
2018-11-01T21:37:02.619Z,97218.09
2018-11-01T21:41:57.875Z,97211.03
2018-11-01T21:46:52.839Z,97208.50
2018-11-01T21:51:48.156Z,97212.63
2018-11-01T21:56:43.056Z,97222.39
2018-11-01T22:01:37.929Z,97211.31
2018-11-01T22:06:32.943Z,97207.26
2018-11-01T22:11:27.887Z,97202.23
2018-11-01T22:16:22.807Z,97211.93
2018-11-01T22:21:17.930Z,97220.48
2018-11-01T22:26:13.667Z,97205.34
2018-11-01T22:31:08.699Z,97208.54
2018-11-01T22:36:03.687Z,97208.77
2018-11-01T22:40:58.584Z,97215.62
2018-11-01T22:45:53.480Z,97234.22
2018-11-01T22:50:48.456Z,97235.25
2018-11-01T22:55:43.710Z,97233.61
2018-11-01T23:00:42.940Z,97220.40
2018-11-01T23:05:37.855Z,97224.52
2018-11-01T23:10:32.821Z,97217.77
2018-11-01T23:15:27.718Z,97224.27
2018-11-01T23:20:22.598Z,97234.78
2018-11-01T23:25:17.560Z,97240.12
2018-11-01T23:30:12.548Z,97237.52
2018-11-01T23:35:07.756Z,97243.17
2018-11-01T23:40:07.663Z,97248.06
2018-11-01T23:45:07.513Z,97247.93
2018-11-01T23:50:07.261Z,97264.63
2018-11-01T23:55:02.237Z,97271.13
2018-11-01T23:59:57.148Z,97267.46
